sensor_id;sensor_type;location;lat;lon;timestamp;pressure;altitude;pressure_sealevel;temperature;humidity
44453;BME280;30155;52.164;21.236;2022-07-10T00:01:42;100404.69;;;15.67;64.79
44453;BME280;30155;52.164;21.236;2022-07-10T00:06:34;100407.80;;;15.60;64.79
44453;BME280;30155;52.164;21.236;2022-07-10T00:11:26;100410.04;;;15.53;64.87
44453;BME280;30155;52.164;21.236;2022-07-10T00:16:18;100401.34;;;15.48;65.08
44453;BME280;30155;52.164;21.236;2022-07-10T00:21:11;100407.88;;;15.51;65.36
44453;BME280;30155;52.164;21.236;2022-07-10T00:26:03;100403.11;;;15.46;65.45
44453;BME280;30155;52.164;21.236;2022-07-10T00:30:55;100396.58;;;15.43;65.74
44453;BME280;30155;52.164;21.236;2022-07-10T00:35:47;100390.00;;;15.49;66.19
44453;BME280;30155;52.164;21.236;2022-07-10T00:40:39;100395.70;;;15.47;66.22
44453;BME280;30155;52.164;21.236;2022-07-10T00:45:31;100390.00;;;15.49;66.36
44453;BME280;30155;52.164;21.236;2022-07-10T00:50:23;100386.92;;;15.50;66.23
44453;BME280;30155;52.164;21.236;2022-07-10T00:55:16;100378.23;;;15.46;66.29
44453;BME280;30155;52.164;21.236;2022-07-10T01:00:09;100367.83;;;15.37;66.26
44453;BME280;30155;52.164;21.236;2022-07-10T01:05:03;100376.17;;;15.29;66.46
44453;BME280;30155;52.164;21.236;2022-07-10T01:09:56;100374.94;;;15.19;66.45
44453;BME280;30155;52.164;21.236;2022-07-10T01:14:48;100369.77;;;15.12;66.64
44453;BME280;30155;52.164;21.236;2022-07-10T01:19:40;100370.23;;;15.08;66.66
44453;BME280;30155;52.164;21.236;2022-07-10T01:24:32;100368.07;;;15.06;66.68
44453;BME280;30155;52.164;21.236;2022-07-10T01:29:25;100356.30;;;15.04;66.91
44453;BME280;30155;52.164;21.236;2022-07-10T01:34:17;100357.16;;;15.05;66.99
44453;BME280;30155;52.164;21.236;2022-07-10T01:39:09;100348.91;;;15.01;67.03
44453;BME280;30155;52.164;21.236;2022-07-10T01:44:02;100350.67;;;14.99;67.16
44453;BME280;30155;52.164;21.236;2022-07-10T01:48:55;100358.08;;;14.98;67.28
44453;BME280;30155;52.164;21.236;2022-07-10T01:53:48;100346.78;;;14.90;67.28
44453;BME280;30155;52.164;21.236;2022-07-10T01:58:41;100333.73;;;14.86;67.40
44453;BME280;30155;52.164;21.236;2022-07-10T02:03:33;100331.13;;;14.83;67.55
44453;BME280;30155;52.164;21.236;2022-07-10T02:08:44;100337.28;;;14.76;67.53
44453;BME280;30155;52.164;21.236;2022-07-10T02:13:36;100333.81;;;14.73;67.86
44453;BME280;30155;52.164;21.236;2022-07-10T02:18:28;100330.81;;;14.64;67.77
44453;BME280;30155;52.164;21.236;2022-07-10T02:23:20;100324.75;;;14.54;67.97
44453;BME280;30155;52.164;21.236;2022-07-10T02:28:12;100323.45;;;14.46;68.13
44453;BME280;30155;52.164;21.236;2022-07-10T02:33:04;100339.20;;;14.39;68.12
44453;BME280;30155;52.164;21.236;2022-07-10T02:37:56;100330.55;;;14.20;68.33
44453;BME280;30155;52.164;21.236;2022-07-10T02:42:48;100329.24;;;14.18;68.65
44453;BME280;30155;52.164;21.236;2022-07-10T02:47:40;100324.02;;;14.20;68.80
44453;BME280;30155;52.164;21.236;2022-07-10T02:52:32;100324.45;;;14.21;69.08
44453;BME280;30155;52.164;21.236;2022-07-10T02:57:25;100323.55;;;14.28;69.21
44453;BME280;30155;52.164;21.236;2022-07-10T03:02:17;100324.00;;;14.29;69.35
44453;BME280;30155;52.164;21.236;2022-07-10T03:07:09;100325.72;;;14.32;69.33
44453;BME280;30155;52.164;21.236;2022-07-10T03:12:01;100327.88;;;14.35;69.35
44453;BME280;30155;52.164;21.236;2022-07-10T03:16:53;100323.91;;;14.43;69.57
44453;BME280;30155;52.164;21.236;2022-07-10T03:21:45;100320.42;;;14.45;69.54
44453;BME280;30155;52.164;21.236;2022-07-10T03:26:38;100314.69;;;14.55;69.58
44453;BME280;30155;52.164;21.236;2022-07-10T03:31:30;100313.81;;;14.61;69.52
44453;BME280;30155;52.164;21.236;2022-07-10T03:36:23;100314.66;;;14.66;69.74
44453;BME280;30155;52.164;21.236;2022-07-10T03:41:15;100318.09;;;14.77;70.01
44453;BME280;30155;52.164;21.236;2022-07-10T03:46:07;100316.22;;;14.93;70.02
44453;BME280;30155;52.164;21.236;2022-07-10T03:51:00;100320.89;;;15.11;69.91
44453;BME280;30155;52.164;21.236;2022-07-10T03:55:52;100310.34;;;15.18;69.83
44453;BME280;30155;52.164;21.236;2022-07-10T04:00:45;100313.37;;;15.25;69.72
44453;BME280;30155;52.164;21.236;2022-07-10T04:05:37;100310.23;;;15.31;69.74
44453;BME280;30155;52.164;21.236;2022-07-10T04:10:30;100312.73;;;15.46;69.79
44453;BME280;30155;52.164;21.236;2022-07-10T04:15:23;100312.13;;;15.63;69.60
44453;BME280;30155;52.164;21.236;2022-07-10T04:20:16;100304.55;;;15.80;69.51
44453;BME280;30155;52.164;21.236;2022-07-10T04:25:10;100305.83;;;15.85;68.94
44453;BME280;30155;52.164;21.236;2022-07-10T04:30:04;100313.12;;;15.94;68.75
44453;BME280;30155;52.164;21.236;2022-07-10T04:34:57;100308.58;;;16.10;68.58
44453;BME280;30155;52.164;21.236;2022-07-10T04:39:49;100299.91;;;16.38;67.93
44453;BME280;30155;52.164;21.236;2022-07-10T04:44:41;100305.89;;;16.48;67.31
44453;BME280;30155;52.164;21.236;2022-07-10T04:49:34;100304.02;;;16.58;66.56
44453;BME280;30155;52.164;21.236;2022-07-10T04:54:26;100300.75;;;16.72;66.22
44453;BME280;30155;52.164;21.236;2022-07-10T04:59:18;100300.48;;;16.91;65.75
44453;BME280;30155;52.164;21.236;2022-07-10T05:04:10;100297.23;;;17.02;64.63
44453;BME280;30155;52.164;21.236;2022-07-10T05:09:03;100300.66;;;17.07;64.42
44453;BME280;30155;52.164;21.236;2022-07-10T05:13:55;100297.05;;;17.13;63.74
44453;BME280;30155;52.164;21.236;2022-07-10T05:18:48;100296.99;;;17.18;63.48
44453;BME280;30155;52.164;21.236;2022-07-10T05:23:40;100292.45;;;17.26;63.18
44453;BME280;30155;52.164;21.236;2022-07-10T05:28:32;100293.16;;;17.37;62.91
44453;BME280;30155;52.164;21.236;2022-07-10T05:33:25;100289.92;;;17.45;62.69
44453;BME280;30155;52.164;21.236;2022-07-10T05:38:20;100284.34;;;17.64;62.43
44453;BME280;30155;52.164;21.236;2022-07-10T05:43:12;100284.81;;;17.84;61.80
44453;BME280;30155;52.164;21.236;2022-07-10T05:48:05;100286.09;;;18.10;61.45
44453;BME280;30155;52.164;21.236;2022-07-10T05:52:58;100273.28;;;18.14;60.64
44453;BME280;30155;52.164;21.236;2022-07-10T05:57:50;100265.47;;;18.31;60.35
44453;BME280;30155;52.164;21.236;2022-07-10T06:02:42;100261.05;;;18.70;59.84
44453;BME280;30155;52.164;21.236;2022-07-10T06:07:34;100264.28;;;18.83;58.98
44453;BME280;30155;52.164;21.236;2022-07-10T06:12:27;100274.09;;;18.96;59.02
44453;BME280;30155;52.164;21.236;2022-07-10T06:17:19;100275.86;;;19.12;58.40
44453;BME280;30155;52.164;21.236;2022-07-10T06:22:11;100276.97;;;19.21;58.34
44453;BME280;30155;52.164;21.236;2022-07-10T06:27:22;100280.17;;;19.16;57.90
44453;BME280;30155;52.164;21.236;2022-07-10T06:32:14;100276.27;;;18.96;57.40
44453;BME280;30155;52.164;21.236;2022-07-10T06:37:06;100271.23;;;18.87;57.46
44453;BME280;30155;52.164;21.236;2022-07-10T06:41:58;100276.55;;;18.64;57.54
44453;BME280;30155;52.164;21.236;2022-07-10T06:46:53;100267.89;;;18.59;57.79
44453;BME280;30155;52.164;21.236;2022-07-10T06:52:04;100265.81;;;18.54;58.02
44453;BME280;30155;52.164;21.236;2022-07-10T06:56:56;100277.59;;;18.38;58.05
44453;BME280;30155;52.164;21.236;2022-07-10T07:01:48;100279.17;;;18.25;57.93
44453;BME280;30155;52.164;21.236;2022-07-10T07:06:41;100282.55;;;18.11;58.50
44453;BME280;30155;52.164;21.236;2022-07-10T07:11:33;100266.30;;;18.12;58.77
44453;BME280;30155;52.164;21.236;2022-07-10T07:16:26;100265.01;;;18.31;58.27
44453;BME280;30155;52.164;21.236;2022-07-10T07:21:32;100263.81;;;18.65;58.54
44453;BME280;30155;52.164;21.236;2022-07-10T07:26:43;100272.59;;;19.20;57.52
44453;BME280;30155;52.164;21.236;2022-07-10T07:31:41;100258.13;;;20.44;56.39
44453;BME280;30155;52.164;21.236;2022-07-10T07:36:33;100260.30;;;20.74;55.80
44453;BME280;30155;52.164;21.236;2022-07-10T07:41:25;100253.29;;;23.22;51.51
44453;BME280;30155;52.164;21.236;2022-07-10T07:46:18;100256.27;;;23.35;51.78
44453;BME280;30155;52.164;21.236;2022-07-10T07:51:11;100249.35;;;22.78;51.86
44453;BME280;30155;52.164;21.236;2022-07-10T07:56:04;100243.94;;;25.23;48.58
44453;BME280;30155;52.164;21.236;2022-07-10T08:00:57;100242.48;;;24.54;49.11
44453;BME280;30155;52.164;21.236;2022-07-10T08:05:50;100257.41;;;23.40;49.52
44453;BME280;30155;52.164;21.236;2022-07-10T08:10:42;100247.93;;;22.92;49.25
44453;BME280;30155;52.164;21.236;2022-07-10T08:15:34;100253.74;;;23.63;46.84
44453;BME280;30155;52.164;21.236;2022-07-10T08:20:27;100238.09;;;25.25;43.76
44453;BME280;30155;52.164;21.236;2022-07-10T08:25:19;100244.09;;;26.29;42.71
44453;BME280;30155;52.164;21.236;2022-07-10T08:30:12;100246.22;;;25.04;43.86
44453;BME280;30155;52.164;21.236;2022-07-10T08:35:06;100250.73;;;25.20;43.35
44453;BME280;30155;52.164;21.236;2022-07-10T08:39:58;100247.84;;;24.34;44.63
44453;BME280;30155;52.164;21.236;2022-07-10T08:44:51;100254.73;;;23.19;45.08
44453;BME280;30155;52.164;21.236;2022-07-10T08:49:47;100246.95;;;22.28;46.17
44453;BME280;30155;52.164;21.236;2022-07-10T08:54:39;100250.17;;;22.36;46.09
44453;BME280;30155;52.164;21.236;2022-07-10T08:59:32;100240.42;;;23.44;45.14
44453;BME280;30155;52.164;21.236;2022-07-10T09:04:26;100239.50;;;25.32;42.64
44453;BME280;30155;52.164;21.236;2022-07-10T09:09:20;100248.39;;;24.96;43.11
44453;BME280;30155;52.164;21.236;2022-07-10T09:14:16;100247.63;;;24.39;43.27
44453;BME280;30155;52.164;21.236;2022-07-10T09:19:17;100235.73;;;23.90;42.71
44453;BME280;30155;52.164;21.236;2022-07-10T09:24:11;100241.30;;;23.24;43.94
44453;BME280;30155;52.164;21.236;2022-07-10T09:29:08;100237.13;;;22.64;45.12
44453;BME280;30155;52.164;21.236;2022-07-10T09:34:02;100241.23;;;22.15;45.59
44453;BME280;30155;52.164;21.236;2022-07-10T09:38:55;100235.22;;;21.88;46.56
44453;BME280;30155;52.164;21.236;2022-07-10T09:44:00;100233.37;;;22.02;45.58
44453;BME280;30155;52.164;21.236;2022-07-10T09:49:12;100228.22;;;23.19;44.28
44453;BME280;30155;52.164;21.236;2022-07-10T09:54:05;100223.94;;;24.25;43.38
44453;BME280;30155;52.164;21.236;2022-07-10T09:59:00;100207.77;;;27.77;40.39
44453;BME280;30155;52.164;21.236;2022-07-10T10:03:53;100208.33;;;26.65;41.09
44453;BME280;30155;52.164;21.236;2022-07-10T10:08:51;100206.41;;;25.87;39.68
44453;BME280;30155;52.164;21.236;2022-07-10T10:14:03;100221.96;;;24.20;41.36
44453;BME280;30155;52.164;21.236;2022-07-10T10:18:55;100220.47;;;22.72;42.55
44453;BME280;30155;52.164;21.236;2022-07-10T10:24:06;100209.87;;;22.28;43.80
44453;BME280;30155;52.164;21.236;2022-07-10T10:29:00;100214.02;;;22.23;44.57
44453;BME280;30155;52.164;21.236;2022-07-10T10:33:57;100211.72;;;21.55;45.68
44453;BME280;30155;52.164;21.236;2022-07-10T10:49:08;100229.55;;;20.00;49.05
44453;BME280;30155;52.164;21.236;2022-07-10T10:54:05;100232.05;;;19.90;49.22
44453;BME280;30155;52.164;21.236;2022-07-10T10:58:57;100236.81;;;19.77;49.23
44453;BME280;30155;52.164;21.236;2022-07-10T11:04:13;100239.98;;;19.57;50.80
44453;BME280;30155;52.164;21.236;2022-07-10T11:14:23;100232.44;;;19.59;52.67
44453;BME280;30155;52.164;21.236;2022-07-10T11:19:22;100217.59;;;20.03;52.36
44453;BME280;30155;52.164;21.236;2022-07-10T11:29:36;100200.38;;;21.51;48.54
44453;BME280;30155;52.164;21.236;2022-07-10T11:34:34;100200.06;;;21.73;46.92
44453;BME280;30155;52.164;21.236;2022-07-10T11:39:28;100204.82;;;21.51;46.30
44453;BME280;30155;52.164;21.236;2022-07-10T11:44:20;100207.36;;;21.54;46.00
44453;BME280;30155;52.164;21.236;2022-07-10T11:49:12;100210.26;;;21.72;46.66
44453;BME280;30155;52.164;21.236;2022-07-10T11:54:08;100204.44;;;21.74;45.12
44453;BME280;30155;52.164;21.236;2022-07-10T11:59:09;100214.11;;;21.24;45.81
44453;BME280;30155;52.164;21.236;2022-07-10T12:04:05;100210.91;;;20.76;46.58
44453;BME280;30155;52.164;21.236;2022-07-10T12:09:07;100210.27;;;20.69;46.18
44453;BME280;30155;52.164;21.236;2022-07-10T12:14:18;100206.66;;;21.49;47.29
44453;BME280;30155;52.164;21.236;2022-07-10T12:19:15;100194.21;;;22.22;45.67
44453;BME280;30155;52.164;21.236;2022-07-10T12:24:09;100197.56;;;22.49;44.14
44453;BME280;30155;52.164;21.236;2022-07-10T12:29:02;100177.29;;;23.42;43.85
44453;BME280;30155;52.164;21.236;2022-07-10T12:34:03;100183.15;;;23.98;43.42
44453;BME280;30155;52.164;21.236;2022-07-10T12:38:57;100193.19;;;22.91;43.18
44453;BME280;30155;52.164;21.236;2022-07-10T12:43:50;100194.00;;;22.04;43.94
44453;BME280;30155;52.164;21.236;2022-07-10T12:49:00;100198.06;;;22.69;44.06
44453;BME280;30155;52.164;21.236;2022-07-10T12:53:55;100194.52;;;23.52;41.75
44453;BME280;30155;52.164;21.236;2022-07-10T12:58:47;100195.25;;;23.85;41.41
44453;BME280;30155;52.164;21.236;2022-07-10T13:03:39;100195.25;;;23.85;40.64
44453;BME280;30155;52.164;21.236;2022-07-10T13:08:44;100199.48;;;24.08;41.24
44453;BME280;30155;52.164;21.236;2022-07-10T13:13:37;100186.98;;;24.29;41.47
44453;BME280;30155;52.164;21.236;2022-07-10T13:18:29;100208.77;;;23.81;41.10
44453;BME280;30155;52.164;21.236;2022-07-10T13:23:21;100207.70;;;22.92;42.02
44453;BME280;30155;52.164;21.236;2022-07-10T13:28:15;100211.55;;;22.53;42.27
44453;BME280;30155;52.164;21.236;2022-07-10T13:33:08;100222.75;;;22.25;42.80
44453;BME280;30155;52.164;21.236;2022-07-10T13:38:02;100229.88;;;21.89;43.32
44453;BME280;30155;52.164;21.236;2022-07-10T13:42:57;100234.17;;;21.68;43.62
44453;BME280;30155;52.164;21.236;2022-07-10T13:47:50;100228.52;;;21.54;44.47
44453;BME280;30155;52.164;21.236;2022-07-10T13:52:44;100234.92;;;21.72;44.38
44453;BME280;30155;52.164;21.236;2022-07-10T13:57:37;100220.38;;;21.84;44.50
44453;BME280;30155;52.164;21.236;2022-07-10T14:02:29;100229.33;;;21.80;44.91
44453;BME280;30155;52.164;21.236;2022-07-10T14:07:21;100240.66;;;21.60;45.46
44453;BME280;30155;52.164;21.236;2022-07-10T14:12:14;100259.86;;;21.26;45.59
44453;BME280;30155;52.164;21.236;2022-07-10T14:17:06;100261.67;;;20.57;45.83
44453;BME280;30155;52.164;21.236;2022-07-10T14:21:58;100274.72;;;20.04;48.05
44453;BME280;30155;52.164;21.236;2022-07-10T14:26:51;100277.77;;;19.57;49.58
44453;BME280;30155;52.164;21.236;2022-07-10T14:31:45;100278.08;;;19.29;50.57
44453;BME280;30155;52.164;21.236;2022-07-10T14:36:39;100273.38;;;19.23;51.20
44453;BME280;30155;52.164;21.236;2022-07-10T14:41:31;100270.72;;;19.91;51.90
44453;BME280;30155;52.164;21.236;2022-07-10T14:46:23;100257.95;;;20.78;51.59
44453;BME280;30155;52.164;21.236;2022-07-10T14:51:15;100262.62;;;21.50;50.21
44453;BME280;30155;52.164;21.236;2022-07-10T14:56:09;100263.91;;;21.87;49.50
44453;BME280;30155;52.164;21.236;2022-07-10T15:01:01;100274.84;;;21.66;49.03
44453;BME280;30155;52.164;21.236;2022-07-10T15:05:54;100270.94;;;21.88;49.63
44453;BME280;30155;52.164;21.236;2022-07-10T15:10:49;100266.38;;;21.80;48.25
44453;BME280;30155;52.164;21.236;2022-07-10T15:15:42;100276.41;;;21.46;48.80
44453;BME280;30155;52.164;21.236;2022-07-10T15:20:34;100280.38;;;21.95;48.66
44453;BME280;30155;52.164;21.236;2022-07-10T15:25:28;100289.25;;;22.18;47.57
44453;BME280;30155;52.164;21.236;2022-07-10T15:30:20;100277.41;;;21.56;48.24
44453;BME280;30155;52.164;21.236;2022-07-10T15:35:13;100290.20;;;21.16;48.78
44453;BME280;30155;52.164;21.236;2022-07-10T15:40:06;100285.42;;;20.87;48.79
44453;BME280;30155;52.164;21.236;2022-07-10T15:44:59;100289.61;;;20.80;49.39
44453;BME280;30155;52.164;21.236;2022-07-10T15:49:53;100287.27;;;20.55;49.05
44453;BME280;30155;52.164;21.236;2022-07-10T15:54:45;100292.92;;;20.13;49.29
44453;BME280;30155;52.164;21.236;2022-07-10T15:59:38;100293.73;;;19.86;49.93
44453;BME280;30155;52.164;21.236;2022-07-10T16:04:32;100299.64;;;19.61;50.41
44453;BME280;30155;52.164;21.236;2022-07-10T16:09:24;100289.26;;;19.71;50.60
44453;BME280;30155;52.164;21.236;2022-07-10T16:14:16;100291.47;;;19.70;51.28
44453;BME280;30155;52.164;21.236;2022-07-10T16:19:09;100296.68;;;19.57;51.76
44453;BME280;30155;52.164;21.236;2022-07-10T16:24:03;100285.41;;;19.67;52.09
44453;BME280;30155;52.164;21.236;2022-07-10T16:28:56;100284.96;;;20.00;52.36
44453;BME280;30155;52.164;21.236;2022-07-10T16:33:48;100269.27;;;20.25;51.50
44453;BME280;30155;52.164;21.236;2022-07-10T16:38:41;100263.50;;;20.55;50.94
44453;BME280;30155;52.164;21.236;2022-07-10T16:43:33;100268.96;;;20.21;50.56
44453;BME280;30155;52.164;21.236;2022-07-10T16:48:26;100256.08;;;20.10;49.97
44453;BME280;30155;52.164;21.236;2022-07-10T16:53:19;100273.01;;;19.70;50.29
44453;BME280;30155;52.164;21.236;2022-07-10T16:58:13;100278.05;;;19.30;49.72
44453;BME280;30155;52.164;21.236;2022-07-10T17:03:05;100284.56;;;18.97;50.31
44453;BME280;30155;52.164;21.236;2022-07-10T17:07:57;100290.46;;;18.91;50.61
44453;BME280;30155;52.164;21.236;2022-07-10T17:12:50;100290.97;;;18.67;51.04
44453;BME280;30155;52.164;21.236;2022-07-10T17:17:44;100298.69;;;18.56;51.39
44453;BME280;30155;52.164;21.236;2022-07-10T17:22:37;100295.03;;;18.42;51.49
44453;BME280;30155;52.164;21.236;2022-07-10T17:27:31;100309.66;;;18.36;51.48
44453;BME280;30155;52.164;21.236;2022-07-10T17:32:23;100324.77;;;18.26;51.47
44453;BME280;30155;52.164;21.236;2022-07-10T17:37:15;100330.33;;;18.12;51.63
44453;BME280;30155;52.164;21.236;2022-07-10T17:42:07;100332.48;;;17.91;51.88
44453;BME280;30155;52.164;21.236;2022-07-10T17:46:59;100335.64;;;17.86;51.97
44453;BME280;30155;52.164;21.236;2022-07-10T17:51:52;100326.03;;;17.84;52.16
44453;BME280;30155;52.164;21.236;2022-07-10T17:56:44;100331.01;;;17.75;52.53
44453;BME280;30155;52.164;21.236;2022-07-10T18:01:36;100340.50;;;17.85;52.81
44453;BME280;30155;52.164;21.236;2022-07-10T18:06:29;100336.27;;;17.75;52.53
44453;BME280;30155;52.164;21.236;2022-07-10T18:11:21;100345.29;;;17.62;52.83
44453;BME280;30155;52.164;21.236;2022-07-10T18:16:14;100346.56;;;17.38;53.48
44453;BME280;30155;52.164;21.236;2022-07-10T18:21:10;100349.53;;;17.18;54.06
44453;BME280;30155;52.164;21.236;2022-07-10T18:26:04;100356.91;;;16.94;54.34
44453;BME280;30155;52.164;21.236;2022-07-10T18:30:57;100361.49;;;16.76;55.00
44453;BME280;30155;52.164;21.236;2022-07-10T18:35:49;100364.77;;;16.61;55.85
44453;BME280;30155;52.164;21.236;2022-07-10T18:40:41;100378.53;;;16.45;56.34
44453;BME280;30155;52.164;21.236;2022-07-10T18:45:34;100366.50;;;16.28;57.35
44453;BME280;30155;52.164;21.236;2022-07-10T18:50:26;100376.30;;;16.12;57.54
44453;BME280;30155;52.164;21.236;2022-07-10T18:55:18;100377.27;;;16.04;58.28
44453;BME280;30155;52.164;21.236;2022-07-10T19:00:11;100386.16;;;15.90;58.40
44453;BME280;30155;52.164;21.236;2022-07-10T19:05:05;100381.95;;;15.71;58.92
44453;BME280;30155;52.164;21.236;2022-07-10T19:10:00;100385.45;;;15.67;59.41
44453;BME280;30155;52.164;21.236;2022-07-10T19:14:56;100389.84;;;15.64;59.60
44453;BME280;30155;52.164;21.236;2022-07-10T19:19:48;100394.32;;;15.53;59.83
44453;BME280;30155;52.164;21.236;2022-07-10T19:24:41;100389.57;;;15.45;60.27
44453;BME280;30155;52.164;21.236;2022-07-10T19:29:33;100397.05;;;15.39;60.44
44453;BME280;30155;52.164;21.236;2022-07-10T19:34:25;100400.13;;;15.36;60.66
44453;BME280;30155;52.164;21.236;2022-07-10T19:39:18;100405.45;;;15.27;61.01
44453;BME280;30155;52.164;21.236;2022-07-10T19:44:10;100402.89;;;15.17;61.10
44453;BME280;30155;52.164;21.236;2022-07-10T19:49:05;100408.66;;;15.06;61.69
44453;BME280;30155;52.164;21.236;2022-07-10T19:53:58;100415.67;;;14.98;62.09
44453;BME280;30155;52.164;21.236;2022-07-10T19:58:50;100409.19;;;14.87;62.42
44453;BME280;30155;52.164;21.236;2022-07-10T20:03:42;100412.27;;;14.85;62.74
44453;BME280;30155;52.164;21.236;2022-07-10T20:08:35;100414.03;;;14.80;63.11
44453;BME280;30155;52.164;21.236;2022-07-10T20:13:27;100418.01;;;14.69;63.60
44453;BME280;30155;52.164;21.236;2022-07-10T20:18:20;100423.69;;;14.65;63.92
44453;BME280;30155;52.164;21.236;2022-07-10T20:23:12;100432.89;;;14.58;63.94
44453;BME280;30155;52.164;21.236;2022-07-10T20:28:04;100435.03;;;14.57;64.28
44453;BME280;30155;52.164;21.236;2022-07-10T20:32:56;100446.84;;;14.51;64.67
44453;BME280;30155;52.164;21.236;2022-07-10T20:37:49;100442.92;;;14.47;65.27
44453;BME280;30155;52.164;21.236;2022-07-10T20:42:42;100439.44;;;14.45;65.19
44453;BME280;30155;52.164;21.236;2022-07-10T20:47:34;100435.97;;;14.43;65.44
44453;BME280;30155;52.164;21.236;2022-07-10T20:52:26;100439.89;;;14.42;65.49
44453;BME280;30155;52.164;21.236;2022-07-10T20:57:18;100448.19;;;14.38;65.78
44453;BME280;30155;52.164;21.236;2022-07-10T21:02:11;100442.95;;;14.38;66.00
44453;BME280;30155;52.164;21.236;2022-07-10T21:07:03;100436.45;;;14.26;65.93
44453;BME280;30155;52.164;21.236;2022-07-10T21:11:56;100434.28;;;14.24;66.39
44453;BME280;30155;52.164;21.236;2022-07-10T21:16:48;100434.72;;;14.16;66.60
44453;BME280;30155;52.164;21.236;2022-07-10T21:21:40;100429.96;;;14.04;66.79
44453;BME280;30155;52.164;21.236;2022-07-10T21:26:32;100425.59;;;14.06;67.13
44453;BME280;30155;52.164;21.236;2022-07-10T21:31:24;100434.30;;;14.04;67.13
44453;BME280;30155;52.164;21.236;2022-07-10T21:36:16;100439.55;;;14.01;67.08
44453;BME280;30155;52.164;21.236;2022-07-10T21:41:08;100445.62;;;13.97;67.25
44453;BME280;30155;52.164;21.236;2022-07-10T21:46:01;100447.37;;;13.93;67.62
44453;BME280;30155;52.164;21.236;2022-07-10T21:50:53;100444.77;;;13.82;67.76
44453;BME280;30155;52.164;21.236;2022-07-10T21:55:45;100455.25;;;13.78;67.85
44453;BME280;30155;52.164;21.236;2022-07-10T22:00:37;100451.34;;;13.70;68.02
44453;BME280;30155;52.164;21.236;2022-07-10T22:05:30;100456.11;;;13.67;67.88
44453;BME280;30155;52.164;21.236;2022-07-10T22:10:24;100455.24;;;13.64;68.08
44453;BME280;30155;52.164;21.236;2022-07-10T22:15:18;100450.46;;;13.63;68.31
44453;BME280;30155;52.164;21.236;2022-07-10T22:20:11;100457.84;;;13.61;68.27
44453;BME280;30155;52.164;21.236;2022-07-10T22:25:05;100455.23;;;13.53;68.47
44453;BME280;30155;52.164;21.236;2022-07-10T22:29:58;100459.58;;;13.46;68.38
44453;BME280;30155;52.164;21.236;2022-07-10T22:34:51;100453.05;;;13.39;68.34
44453;BME280;30155;52.164;21.236;2022-07-10T22:39:43;100463.07;;;13.36;68.65
44453;BME280;30155;52.164;21.236;2022-07-10T22:44:36;100469.11;;;13.27;68.97
44453;BME280;30155;52.164;21.236;2022-07-10T22:49:28;100455.61;;;13.28;69.43
44453;BME280;30155;52.164;21.236;2022-07-10T22:54:20;100457.36;;;13.27;69.32
44453;BME280;30155;52.164;21.236;2022-07-10T22:59:12;100455.66;;;13.31;69.52
44453;BME280;30155;52.164;21.236;2022-07-10T23:04:06;100457.37;;;13.29;69.53
44453;BME280;30155;52.164;21.236;2022-07-10T23:08:58;100459.99;;;13.32;69.73
44453;BME280;30155;52.164;21.236;2022-07-10T23:13:51;100456.03;;;13.30;69.76
44453;BME280;30155;52.164;21.236;2022-07-10T23:18:43;100462.17;;;13.34;69.94
44453;BME280;30155;52.164;21.236;2022-07-10T23:23:35;100452.61;;;13.31;69.80
44453;BME280;30155;52.164;21.236;2022-07-10T23:28:28;100469.55;;;13.25;69.62
44453;BME280;30155;52.164;21.236;2022-07-10T23:33:20;100463.87;;;13.18;69.96
44453;BME280;30155;52.164;21.236;2022-07-10T23:38:12;100459.51;;;13.17;69.72
44453;BME280;30155;52.164;21.236;2022-07-10T23:43:04;100462.09;;;13.08;69.76
44453;BME280;30155;52.164;21.236;2022-07-10T23:47:56;100462.07;;;12.97;69.71
44453;BME280;30155;52.164;21.236;2022-07-10T23:52:49;100464.20;;;12.93;69.81
44453;BME280;30155;52.164;21.236;2022-07-10T23:57:41;100461.59;;;12.87;69.97
